Time;durP1;ratioP1;P1;durP2;ratioP2;P2;SDS_P1;SDS_P2;PMS_P1;PMS_P2;Temp;Humidity;BMP_temperature;BMP_pressure;BME280_temperature;BME280_humidity;BME280_pressure;Samples;Min_cycle;Max_cycle;Signal;HPM_P1;HPM_P2
2021/03/14 00:00:42;;;;;;;2.38;2.17;;;21.10;56.40;;;;;;5085068;28;20025;-37
2021/03/14 00:03:12;;;;;;;2.40;2.20;;;21.10;56.50;;;;;;5066135;28;20032;-37
2021/03/14 00:05:40;;;;;;;2.50;2.30;;;21.10;56.50;;;;;;5064854;28;20033;-37
2021/03/14 00:08:07;;;;;;;2.45;1.90;;;21.10;56.50;;;;;;5065130;28;20033;-37
2021/03/14 00:10:34;;;;;;;3.67;2.40;;;21.10;56.40;;;;;;5064812;28;20035;-37
2021/03/14 00:13:01;;;;;;;2.60;2.40;;;21.10;56.30;;;;;;5065101;28;20101;-37
2021/03/14 00:15:27;;;;;;;2.40;2.20;;;21.10;56.20;;;;;;5064982;28;20266;-37
2021/03/14 00:17:53;;;;;;;2.35;2.15;;;21.10;56.20;;;;;;5064521;28;20025;-37
2021/03/14 00:20:19;;;;;;;1.92;1.80;;;21.10;56.20;;;;;;5046824;28;20029;-37
2021/03/14 00:22:46;;;;;;;4.03;2.25;;;21.10;56.10;;;;;;5064830;28;20025;-36
2021/03/14 00:25:12;;;;;;;2.33;2.13;;;21.10;56.20;;;;;;5064760;28;20025;-42
2021/03/14 00:27:39;;;;;;;2.45;2.10;;;21.10;56.20;;;;;;5072062;28;20394;-36
2021/03/14 00:30:06;;;;;;;2.80;2.17;;;21.10;56.20;;;;;;5084988;28;20727;-36
2021/03/14 00:32:32;;;;;;;2.72;2.47;;;21.10;56.20;;;;;;5070864;28;20102;-36
2021/03/14 00:34:58;;;;;;;2.80;2.33;;;21.10;56.10;;;;;;5064648;28;20029;-36
2021/03/14 00:37:24;;;;;;;2.90;2.60;;;21.10;56.10;;;;;;5056868;28;20056;-36
2021/03/14 00:39:51;;;;;;;3.72;2.22;;;21.10;56.10;;;;;;5050412;28;20052;-36
2021/03/14 00:42:17;;;;;;;2.88;1.95;;;21.10;56.10;;;;;;5044359;28;20037;-36
2021/03/14 00:44:43;;;;;;;2.40;2.15;;;21.10;56.10;;;;;;5044333;28;20500;-36
2021/03/14 00:47:11;;;;;;;2.47;2.28;;;21.10;56.10;;;;;;5043848;28;20028;-36
2021/03/14 00:49:37;;;;;;;2.78;2.40;;;21.10;56.10;;;;;;5044303;28;20041;-36
2021/03/14 00:52:03;;;;;;;2.63;2.25;;;21.10;56.10;;;;;;5044005;28;20179;-36
2021/03/14 00:54:29;;;;;;;3.00;2.25;;;21.10;56.10;;;;;;5044180;28;20028;-36
2021/03/14 00:56:56;;;;;;;3.58;2.20;;;21.10;56.10;;;;;;5055742;28;20024;-36
2021/03/14 00:59:22;;;;;;;2.40;2.20;;;21.10;56.00;;;;;;5084126;28;20096;-36
2021/03/14 01:01:48;;;;;;;2.58;2.35;;;21.10;55.90;;;;;;5057824;28;20711;-37
2021/03/14 01:04:14;;;;;;;2.42;2.22;;;21.00;55.90;;;;;;5064034;28;20036;-36
2021/03/14 01:06:40;;;;;;;2.55;2.25;;;21.00;55.90;;;;;;5066008;28;20089;-36
2021/03/14 01:09:06;;;;;;;2.65;2.45;;;21.00;55.90;;;;;;5063892;28;20020;-36
2021/03/14 01:11:33;;;;;;;2.60;2.40;;;21.00;55.90;;;;;;5065744;28;20094;-36
2021/03/14 01:13:59;;;;;;;2.50;2.30;;;21.00;56.00;;;;;;5063960;28;20055;-36
2021/03/14 01:16:25;;;;;;;2.70;2.50;;;21.00;55.90;;;;;;5063496;28;20040;-37
2021/03/14 01:18:51;;;;;;;2.97;2.67;;;21.00;55.80;;;;;;5063332;28;20068;-39
2021/03/14 01:21:17;;;;;;;2.40;2.20;;;21.00;55.80;;;;;;5063440;28;20044;-36
2021/03/14 01:23:44;;;;;;;4.10;2.35;;;21.00;55.80;;;;;;5063581;28;20379;-36
2021/03/14 01:26:10;;;;;;;3.72;2.60;;;21.00;55.80;;;;;;5063407;28;20033;-36
2021/03/14 01:28:36;;;;;;;2.45;2.25;;;21.00;55.80;;;;;;5063168;28;20029;-37
2021/03/14 01:31:02;;;;;;;3.03;2.60;;;21.00;55.80;;;;;;5061741;28;20564;-36
2021/03/14 01:33:28;;;;;;;2.53;2.30;;;21.00;55.80;;;;;;5053415;28;20054;-36
2021/03/14 01:35:54;;;;;;;2.65;2.45;;;21.00;55.80;;;;;;5051809;28;20030;-36
2021/03/14 01:38:21;;;;;;;2.85;2.30;;;21.00;55.90;;;;;;5043369;28;20024;-38
2021/03/14 01:40:47;;;;;;;3.33;2.65;;;21.00;55.80;;;;;;5043103;28;20033;-37
2021/03/14 01:43:14;;;;;;;2.65;2.45;;;21.00;55.80;;;;;;5043088;28;20028;-37
2021/03/14 01:45:40;;;;;;;2.92;2.50;;;21.00;55.80;;;;;;5042939;28;20101;-37
2021/03/14 01:48:07;;;;;;;4.13;2.85;;;21.00;55.80;;;;;;5042875;28;20068;-36
2021/03/14 01:50:34;;;;;;;3.22;2.60;;;20.90;55.80;;;;;;5025425;28;20061;-36
2021/03/14 01:53:00;;;;;;;3.00;2.70;;;20.90;55.80;;;;;;5042988;28;20040;-37
2021/03/14 01:55:26;;;;;;;5.60;2.17;;;20.90;55.70;;;;;;5043099;28;20094;-37
2021/03/14 01:57:52;;;;;;;4.07;2.60;;;20.90;55.70;;;;;;5066366;28;20040;-36
2021/03/14 02:00:20;;;;;;;2.47;2.28;;;20.90;55.70;;;;;;5062782;28;20025;-37
2021/03/14 02:02:47;;;;;;;2.97;2.40;;;20.90;55.70;;;;;;5062258;28;20036;-37
2021/03/14 02:05:15;;;;;;;2.88;2.60;;;20.90;55.60;;;;;;5062364;28;20021;-37
2021/03/14 02:07:42;;;;;;;2.78;2.28;;;20.90;55.70;;;;;;5062645;28;20048;-36
2021/03/14 02:10:09;;;;;;;2.90;2.60;;;20.90;55.60;;;;;;5044908;28;20025;-37
2021/03/14 02:12:51;;;;;;;3.00;2.50;;;20.90;55.60;;;;;;5044623;28;20615;-36
2021/03/14 02:15:17;;;;;;;3.05;2.70;;;20.90;55.70;;;;;;5044815;28;20133;-37
2021/03/14 02:17:43;;;;;;;3.22;2.80;;;20.90;55.80;;;;;;5062295;28;20048;-37
2021/03/14 02:20:17;;;;;;;3.40;2.92;;;20.90;55.80;;;;;;5062543;28;20081;-36
2021/03/14 02:22:44;;;;;;;3.78;3.05;;;20.90;55.80;;;;;;5062591;28;20101;-36
2021/03/14 02:25:32;;;;;;;2.72;2.50;;;20.90;55.80;;;;;;5044654;28;20048;-37
2021/03/14 02:27:58;;;;;;;3.22;2.75;;;20.90;55.80;;;;;;5060595;28;20100;-37
2021/03/14 02:30:24;;;;;;;3.03;2.72;;;20.90;55.80;;;;;;5064502;28;20021;-37
2021/03/14 02:32:50;;;;;;;3.13;2.83;;;20.80;55.80;;;;;;5048165;28;20025;-36
2021/03/14 02:35:16;;;;;;;3.15;2.75;;;20.80;55.80;;;;;;5044571;28;20052;-36
2021/03/14 02:37:42;;;;;;;3.33;2.60;;;20.80;55.70;;;;;;5044236;28;20036;-36
2021/03/14 02:40:09;;;;;;;3.08;2.78;;;20.80;55.80;;;;;;5062145;28;20024;-37
2021/03/14 02:42:37;;;;;;;3.10;2.55;;;20.80;55.70;;;;;;5057542;28;20033;-37
2021/03/14 02:45:04;;;;;;;3.42;2.70;;;20.80;55.70;;;;;;5024637;28;20026;-37
2021/03/14 02:47:30;;;;;;;4.13;2.40;;;20.80;55.80;;;;;;5024323;28;20033;-38
2021/03/14 02:49:56;;;;;;;2.83;2.60;;;20.80;55.70;;;;;;5024299;28;20033;-37
2021/03/14 02:52:22;;;;;;;3.00;2.72;;;20.80;55.70;;;;;;5008470;28;20029;-37
2021/03/14 02:54:50;;;;;;;3.03;2.73;;;20.70;55.60;;;;;;5024483;28;20029;-36
2021/03/14 02:57:21;;;;;;;5.03;3.35;;;20.70;55.70;;;;;;5060521;28;20490;-37
2021/03/14 02:59:51;;;;;;;4.07;2.72;;;20.70;55.70;;;;;;5044588;28;20033;-36
2021/03/14 03:02:20;;;;;;;4.00;3.08;;;20.70;55.80;;;;;;5044760;28;20052;-37
2021/03/14 03:04:48;;;;;;;2.85;2.60;;;20.70;55.80;;;;;;5062165;28;20044;-37
2021/03/14 03:07:15;;;;;;;3.53;3.08;;;20.70;56.00;;;;;;5027938;28;20066;-36
2021/03/14 03:09:42;;;;;;;;;;;20.70;55.90;;;;;;5062165;28;20029;-36
2021/03/14 03:12:09;;;;;;;3.17;2.70;;;20.70;56.00;;;;;;5061777;28;19921;-37
2021/03/14 03:14:35;;;;;;;3.25;2.88;;;20.70;56.00;;;;;;5047018;28;20059;-37
2021/03/14 03:17:01;;;;;;;3.90;3.05;;;20.70;56.00;;;;;;5031480;28;20236;-36
2021/03/14 03:19:27;;;;;;;3.28;2.75;;;20.60;55.90;;;;;;5065432;28;20056;-37
2021/03/14 03:21:53;;;;;;;3.33;3.03;;;20.60;55.90;;;;;;5030392;28;20044;-37
2021/03/14 03:24:19;;;;;;;4.00;3.10;;;20.60;55.90;;;;;;5065638;28;20479;-36
2021/03/14 03:26:48;;;;;;;3.85;3.30;;;20.60;55.90;;;;;;5074989;28;20055;-37
2021/03/14 03:29:15;;;;;;;4.32;3.38;;;20.60;55.90;;;;;;5085285;28;20537;-37
2021/03/14 03:31:41;;;;;;;4.05;3.40;;;20.60;55.90;;;;;;5078725;28;20839;-37
2021/03/14 03:34:08;;;;;;;5.22;3.08;;;20.60;56.00;;;;;;5064805;28;20072;-37
2021/03/14 03:36:35;;;;;;;3.92;3.47;;;20.60;56.10;;;;;;5056628;28;20029;-38
2021/03/14 03:39:02;;;;;;;4.13;3.60;;;20.60;56.10;;;;;;5044952;28;20081;-37
2021/03/14 03:41:28;;;;;;;3.95;3.20;;;20.60;56.10;;;;;;5045294;28;20100;-38
2021/03/14 03:43:56;;;;;;;3.78;3.25;;;20.60;56.10;;;;;;5010942;28;20052;-37
2021/03/14 03:46:22;;;;;;;3.88;3.20;;;20.60;56.10;;;;;;5045263;28;20124;-37
2021/03/14 03:48:50;;;;;;;4.53;3.70;;;20.50;56.20;;;;;;5027185;28;20017;-37
2021/03/14 03:51:24;;;;;;;3.85;3.45;;;20.50;56.40;;;;;;5045191;28;20040;-38
2021/03/14 03:53:50;;;;;;;3.72;3.35;;;20.50;56.40;;;;;;5043266;28;20080;-37
2021/03/14 03:56:17;;;;;;;3.60;3.25;;;20.50;56.40;;;;;;5041678;28;20032;-37
2021/03/14 03:58:44;;;;;;;4.15;3.30;;;20.50;56.50;;;;;;5045014;28;20029;-37
2021/03/14 04:01:10;;;;;;;4.50;3.75;;;20.50;56.50;;;;;;5029417;28;20033;-37
2021/03/14 04:03:38;;;;;;;4.22;3.70;;;20.50;56.40;;;;;;5064806;28;20057;-37
2021/03/14 04:06:04;;;;;;;3.60;3.20;;;20.50;56.50;;;;;;5064734;28;20028;-37
2021/03/14 04:08:31;;;;;;;3.70;3.33;;;20.40;56.50;;;;;;5030069;28;20017;-37
2021/03/14 04:10:57;;;;;;;4.00;3.28;;;20.40;56.50;;;;;;5030030;28;20100;-37
2021/03/14 04:13:23;;;;;;;4.07;3.50;;;20.40;56.50;;;;;;5046593;28;20032;-37
2021/03/14 04:15:49;;;;;;;4.57;3.20;;;20.40;56.50;;;;;;5064729;28;20037;-37
2021/03/14 04:18:16;;;;;;;3.83;3.42;;;20.40;56.50;;;;;;5046519;28;20044;-37
2021/03/14 04:20:42;;;;;;;3.60;2.92;;;20.40;56.50;;;;;;5046135;28;20029;-37
2021/03/14 04:23:14;;;;;;;4.72;3.70;;;20.40;56.50;;;;;;5041993;28;20034;-37
2021/03/14 04:25:40;;;;;;;4.28;3.45;;;20.40;56.50;;;;;;5084123;28;20465;-36
2021/03/14 04:28:06;;;;;;;4.32;3.40;;;20.40;56.50;;;;;;5062827;28;20036;-37
2021/03/14 04:30:32;;;;;;;3.40;3.10;;;20.40;56.40;;;;;;5049664;28;20021;-37
2021/03/14 04:32:59;;;;;;;5.13;3.60;;;20.30;56.20;;;;;;5048605;28;20036;-37
2021/03/14 04:35:25;;;;;;;4.97;3.20;;;20.30;56.20;;;;;;5043043;28;20029;-37
2021/03/14 04:37:51;;;;;;;4.53;3.60;;;20.30;56.20;;;;;;5037508;28;20301;-37
2021/03/14 04:40:18;;;;;;;4.70;3.78;;;20.30;56.20;;;;;;5063655;28;20029;-37
2021/03/14 04:42:47;;;;;;;4.03;3.63;;;20.30;56.40;;;;;;5029925;28;20037;-43
2021/03/14 04:45:14;;;;;;;4.32;3.85;;;20.30;56.40;;;;;;5046182;28;20056;-37
2021/03/14 04:47:41;;;;;;;4.60;3.50;;;20.30;56.40;;;;;;5064039;28;20033;-37
2021/03/14 04:50:11;;;;;;;4.15;3.65;;;20.30;56.40;;;;;;5063621;28;20021;-40
2021/03/14 04:52:38;;;;;;;4.30;3.75;;;20.20;56.30;;;;;;5071585;28;20460;-37
2021/03/14 04:55:08;;;;;;;4.80;3.65;;;20.20;56.40;;;;;;5049086;28;20067;-38
2021/03/14 04:57:35;;;;;;;4.07;3.65;;;20.20;56.40;;;;;;5067537;28;20025;-37
2021/03/14 05:00:02;;;;;;;4.32;3.67;;;20.20;56.30;;;;;;5045569;28;20050;-37
2021/03/14 05:02:30;;;;;;;4.88;3.70;;;20.20;56.30;;;;;;5032515;28;20045;-38
2021/03/14 05:04:56;;;;;;;4.25;3.58;;;20.20;56.30;;;;;;5009439;28;20033;-37
2021/03/14 05:07:22;;;;;;;5.47;3.83;;;20.20;56.20;;;;;;5025959;28;20133;-42
2021/03/14 05:09:48;;;;;;;4.00;3.60;;;20.20;56.10;;;;;;5043142;28;20732;-37
2021/03/14 05:12:15;;;;;;;4.47;3.90;;;20.20;56.10;;;;;;5043174;28;20080;-37
2021/03/14 05:14:41;;;;;;;4.10;3.70;;;20.10;55.90;;;;;;4995150;28;20528;-37
2021/03/14 05:17:07;;;;;;;4.65;3.70;;;20.10;55.80;;;;;;5048136;28;20025;-37
2021/03/14 05:19:33;;;;;;;4.20;3.80;;;20.10;55.80;;;;;;5045473;28;20053;-38
2021/03/14 05:22:00;;;;;;;3.97;3.63;;;20.10;55.80;;;;;;5047623;28;20037;-37
2021/03/14 05:24:26;;;;;;;3.93;3.47;;;20.10;55.80;;;;;;5082988;28;20024;-37
2021/03/14 05:26:53;;;;;;;5.18;3.95;;;20.10;56.30;;;;;;5072577;28;20025;-37
2021/03/14 05:29:19;;;;;;;4.97;4.03;;;20.10;55.90;;;;;;5063089;28;20040;-37
2021/03/14 05:31:45;;;;;;;4.53;3.85;;;20.10;55.80;;;;;;5037513;28;20026;-37
2021/03/14 05:34:15;;;;;;;4.60;4.05;;;20.00;55.70;;;;;;5025535;28;20037;-37
2021/03/14 05:36:42;;;;;;;4.20;3.75;;;20.00;55.80;;;;;;5046464;28;20033;-37
2021/03/14 05:39:08;;;;;;;4.75;4.18;;;20.00;55.90;;;;;;5042094;28;20609;-37
2021/03/14 05:41:35;;;;;;;4.28;3.88;;;20.00;56.00;;;;;;5042592;28;20041;-37
2021/03/14 05:44:01;;;;;;;4.57;4.10;;;20.00;55.90;;;;;;5025399;28;20036;-37
2021/03/14 05:46:28;;;;;;;3.90;3.50;;;20.00;55.90;;;;;;5042829;28;20551;-37
2021/03/14 05:48:54;;;;;;;5.45;3.90;;;20.00;55.80;;;;;;5042741;28;20021;-37
2021/03/14 05:51:28;;;;;;;4.88;4.00;;;20.00;55.90;;;;;;5042672;28;20037;-37
2021/03/14 05:53:55;;;;;;;5.05;4.03;;;19.90;55.80;;;;;;5079313;28;20028;-37
2021/03/14 05:56:22;;;;;;;4.55;4.00;;;19.90;55.80;;;;;;5076425;28;20032;-37
2021/03/14 05:58:49;;;;;;;6.13;3.90;;;19.90;55.80;;;;;;5062649;28;20032;-37
2021/03/14 06:01:17;;;;;;;4.60;4.10;;;19.90;55.70;;;;;;5062343;28;20037;-37
2021/03/14 06:03:43;;;;;;;4.65;4.25;;;19.90;55.70;;;;;;5044737;28;20025;-37
2021/03/14 06:06:11;;;;;;;4.38;3.88;;;19.90;55.70;;;;;;5044663;28;20028;-37
2021/03/14 06:08:38;;;;;;;4.28;3.88;;;19.90;55.70;;;;;;5062437;28;20021;-38
2021/03/14 06:11:05;;;;;;;4.57;4.15;;;19.90;55.70;;;;;;5062092;28;20530;-37
2021/03/14 06:13:31;;;;;;;4.35;3.88;;;19.80;55.70;;;;;;5062127;28;20029;-37
2021/03/14 06:15:58;;;;;;;4.45;4.00;;;19.80;55.90;;;;;;5062314;28;20032;-37
2021/03/14 06:18:25;;;;;;;4.50;4.10;;;19.80;55.80;;;;;;5062120;28;20029;-37
2021/03/14 06:20:52;;;;;;;5.53;4.32;;;19.80;55.80;;;;;;5062051;28;20116;-37
2021/03/14 06:23:19;;;;;;;4.43;4.00;;;19.80;55.90;;;;;;5054543;28;20704;-37
2021/03/14 06:25:46;;;;;;;5.15;4.00;;;19.80;55.90;;;;;;5062439;28;20072;-37
2021/03/14 06:28:13;;;;;;;4.70;3.97;;;19.80;55.90;;;;;;5062078;28;20060;-36
2021/03/14 06:30:40;;;;;;;4.65;3.95;;;19.80;55.90;;;;;;5062275;28;20027;-37
2021/03/14 06:33:16;;;;;;;4.85;4.35;;;19.80;55.90;;;;;;5062940;28;20116;-37
2021/03/14 06:35:47;;;;;;;5.63;4.50;;;19.70;55.80;;;;;;5043236;28;20632;-37
2021/03/14 06:38:29;;;;;;;4.80;4.28;;;19.70;55.80;;;;;;5043612;28;20029;-37
2021/03/14 06:41:05;;;;;;;6.35;4.43;;;19.80;55.90;;;;;;5042132;28;20052;-37
2021/03/14 06:43:31;;;;;;;4.70;4.18;;;19.70;55.70;;;;;;5041840;28;20051;-37
2021/03/14 06:45:57;;;;;;;5.67;4.27;;;19.70;55.80;;;;;;5042196;28;20025;-37
2021/03/14 06:48:25;;;;;;;5.97;4.60;;;19.70;55.70;;;;;;5024212;28;20267;-37
2021/03/14 06:50:51;;;;;;;5.93;4.75;;;19.70;55.80;;;;;;5045014;28;20021;-37
2021/03/14 06:53:18;;;;;;;4.80;4.35;;;19.70;55.80;;;;;;5072290;28;20037;-38
2021/03/14 06:55:46;;;;;;;4.60;4.13;;;19.70;55.70;;;;;;5084984;28;20104;-38
2021/03/14 06:58:19;;;;;;;;;;;19.70;55.80;;;;;;5066318;28;20048;-37
2021/03/14 07:01:14;;;;;;;4.97;4.47;;;19.60;55.80;;;;;;5065758;28;19935;-37
2021/03/14 07:03:45;;;;;;;4.88;4.30;;;19.60;55.80;;;;;;5058324;28;20059;-37
2021/03/14 07:06:14;;;;;;;4.80;4.30;;;19.60;55.90;;;;;;5047978;28;20398;-37
2021/03/14 07:08:41;;;;;;;5.20;4.60;;;19.60;55.90;;;;;;5047726;28;20142;-37
2021/03/14 07:11:07;;;;;;;5.13;4.20;;;19.60;55.90;;;;;;5065481;28;20033;-37
2021/03/14 07:13:36;;;;;;;4.82;4.40;;;19.60;55.90;;;;;;5065134;28;20519;-37
2021/03/14 07:16:02;;;;;;;4.50;4.10;;;19.60;56.00;;;;;;5065835;28;20645;-37
2021/03/14 07:18:28;;;;;;;4.90;4.13;;;19.60;55.90;;;;;;5065486;28;20048;-37
2021/03/14 07:20:55;;;;;;;5.32;4.43;;;19.50;55.90;;;;;;5065540;28;20037;-38
2021/03/14 07:23:33;;;;;;;6.90;4.32;;;19.50;55.90;;;;;;5065368;28;20039;-37
2021/03/14 07:26:00;;;;;;;5.28;4.20;;;19.50;55.80;;;;;;5065559;28;20039;-37
2021/03/14 07:28:26;;;;;;;5.15;4.65;;;19.50;55.90;;;;;;5065179;28;20055;-37
2021/03/14 07:30:53;;;;;;;6.70;4.67;;;19.50;55.80;;;;;;5065217;28;20029;-37
2021/03/14 07:33:19;;;;;;;5.28;4.03;;;19.50;55.90;;;;;;5045276;28;20116;-37
2021/03/14 07:35:45;;;;;;;5.68;4.30;;;19.50;55.80;;;;;;5045313;28;20032;-38
2021/03/14 07:38:12;;;;;;;6.03;4.55;;;19.50;55.80;;;;;;5027338;28;20030;-37
2021/03/14 07:40:38;;;;;;;6.18;4.90;;;19.40;55.80;;;;;;5037048;28;20093;-37
2021/03/14 07:43:04;;;;;;;5.10;4.60;;;19.50;55.80;;;;;;5053006;28;20115;-37
2021/03/14 07:45:31;;;;;;;5.40;4.72;;;19.40;55.80;;;;;;5027368;28;20089;-37
2021/03/14 07:47:59;;;;;;;4.68;4.10;;;19.40;55.90;;;;;;5045276;28;20452;-38
2021/03/14 07:50:29;;;;;;;4.95;4.45;;;19.40;55.90;;;;;;5045160;28;20112;-38
2021/03/14 07:53:04;;;;;;;5.25;4.70;;;19.40;55.80;;;;;;5065159;28;20106;-37
2021/03/14 07:55:30;;;;;;;4.97;4.50;;;19.40;55.90;;;;;;5050642;28;20039;-37
2021/03/14 07:57:56;;;;;;;4.97;4.47;;;19.30;56.00;;;;;;5027973;28;20055;-37
2021/03/14 08:00:26;;;;;;;5.80;4.45;;;19.30;56.00;;;;;;5044833;28;20866;-38
2021/03/14 08:02:56;;;;;;;5.13;4.60;;;19.30;56.00;;;;;;5042124;28;20074;-37
2021/03/14 08:05:40;;;;;;;4.50;4.10;;;19.30;55.90;;;;;;5064705;28;20025;-37
2021/03/14 08:08:07;;;;;;;5.10;4.32;;;19.30;55.90;;;;;;5064756;28;20025;-37
2021/03/14 08:10:45;;;;;;;4.95;4.35;;;19.30;55.90;;;;;;5064272;28;20024;-37
2021/03/14 08:13:37;;;;;;;5.47;4.53;;;19.20;55.90;;;;;;5064238;28;20036;-37
2021/03/14 08:16:10;;;;;;;5.50;4.50;;;19.30;55.90;;;;;;5064453;28;20044;-37
2021/03/14 08:18:38;;;;;;;4.45;4.03;;;19.20;55.90;;;;;;5064417;28;20474;-37
2021/03/14 08:21:05;;;;;;;4.75;4.30;;;19.20;56.00;;;;;;5064440;28;20029;-37
2021/03/14 08:23:42;;;;;;;5.00;4.50;;;19.20;56.00;;;;;;5079360;28;20024;-37
2021/03/14 08:26:27;;;;;;;4.93;4.43;;;19.20;56.10;;;;;;5062204;28;20037;-37
2021/03/14 08:28:58;;;;;;;5.35;4.72;;;19.20;56.00;;;;;;5064148;28;20088;-37
2021/03/14 08:31:41;;;;;;;4.75;4.28;;;19.20;56.10;;;;;;5059845;28;20021;-37
2021/03/14 08:34:08;;;;;;;5.28;4.70;;;19.20;56.10;;;;;;5026203;28;20028;-37
2021/03/14 08:36:40;;;;;;;4.70;4.20;;;19.10;56.00;;;;;;5062382;28;20021;-37
2021/03/14 08:39:29;;;;;;;5.00;4.45;;;19.10;56.00;;;;;;5064007;28;20458;-37
2021/03/14 08:42:02;;;;;;;4.78;4.22;;;19.10;56.00;;;;;;5063023;28;20705;-37
2021/03/14 08:44:42;;;;;;;5.82;4.50;;;19.10;56.10;;;;;;5063695;28;20032;-37
2021/03/14 08:47:15;;;;;;;5.00;4.50;;;19.00;56.10;;;;;;5063851;28;20118;-37
2021/03/14 08:49:46;;;;;;;5.07;4.57;;;19.00;56.10;;;;;;5063876;28;20791;-37
2021/03/14 08:52:13;;;;;;;5.32;4.50;;;19.00;56.10;;;;;;5050875;28;20040;-37
2021/03/14 08:54:41;;;;;;;5.65;4.30;;;19.00;56.10;;;;;;5083790;28;20024;-37
2021/03/14 08:57:14;;;;;;;4.55;4.03;;;19.00;56.20;;;;;;5071314;28;20025;-37
2021/03/14 08:59:50;;;;;;;5.30;4.32;;;19.00;56.10;;;;;;5063893;28;20039;-37
2021/03/14 09:02:20;;;;;;;4.95;4.40;;;19.00;56.10;;;;;;5063603;28;20033;-37
2021/03/14 09:04:48;;;;;;;4.88;4.38;;;18.90;56.10;;;;;;5063548;28;20028;-38
2021/03/14 09:07:14;;;;;;;5.43;4.50;;;18.90;56.10;;;;;;5063568;28;20052;-37
2021/03/14 09:09:41;;;;;;;5.55;4.60;;;18.90;56.20;;;;;;5047875;28;20021;-37
2021/03/14 09:12:12;;;;;;;4.80;4.05;;;18.90;56.20;;;;;;5063158;28;20068;-37
2021/03/14 09:14:48;;;;;;;4.75;4.22;;;18.90;56.20;;;;;;5076393;28;20035;-37
2021/03/14 09:17:15;;;;;;;4.93;4.30;;;18.90;56.20;;;;;;5083281;28;20400;-37
2021/03/14 09:19:49;;;;;;;5.07;4.40;;;18.90;56.20;;;;;;5083318;28;20085;-36
2021/03/14 09:22:25;;;;;;;6.47;4.80;;;18.80;56.20;;;;;;5078406;28;20043;-37
2021/03/14 09:25:05;;;;;;;4.72;4.30;;;18.80;56.50;;;;;;5063218;28;20573;-37
2021/03/14 09:27:38;;;;;;;6.45;4.28;;;18.80;56.10;;;;;;5062977;28;20561;-37
2021/03/14 09:30:17;;;;;;;7.43;4.90;;;18.80;56.30;;;;;;5063162;28;20032;-36
2021/03/14 09:32:50;;;;;;;5.95;4.63;;;18.80;56.20;;;;;;5047678;28;20044;-37
2021/03/14 09:35:21;;;;;;;4.72;4.28;;;18.70;56.20;;;;;;5043008;28;20025;-36
2021/03/14 09:38:06;;;;;;;4.82;4.30;;;18.70;56.30;;;;;;5042954;28;20021;-37
2021/03/14 09:41:01;;;;;;;5.22;4.40;;;18.80;56.40;;;;;;5025137;28;20060;-37
2021/03/14 09:43:30;;;;;;;5.43;4.70;;;18.70;56.20;;;;;;5056424;28;20033;-37
2021/03/14 09:45:58;;;;;;;4.75;4.20;;;18.70;56.30;;;;;;5063197;28;20104;-37
2021/03/14 09:48:24;;;;;;;5.05;4.45;;;18.70;56.50;;;;;;5062642;28;20040;-37
2021/03/14 09:50:52;;;;;;;5.50;4.15;;;18.70;56.50;;;;;;5062862;28;20075;-37
2021/03/14 09:53:19;;;;;;;4.85;4.30;;;18.60;56.20;;;;;;5076163;28;20102;-37
2021/03/14 09:55:46;;;;;;;;;;;18.60;56.40;;;;;;5082046;28;20039;-37
2021/03/14 09:58:19;;;;;;;5.32;4.30;;;18.60;56.40;;;;;;5044427;28;19936;-37
2021/03/14 10:00:47;;;;;;;4.80;4.20;;;18.60;56.50;;;;;;5062523;28;20056;-37
2021/03/14 10:03:16;;;;;;;;;;;18.60;56.40;;;;;;5045348;28;20025;-37
2021/03/14 10:05:49;;;;;;;4.35;3.90;;;18.60;56.40;;;;;;5044543;28;19936;-37
2021/03/14 10:08:26;;;;;;;4.53;4.13;;;18.50;56.50;;;;;;5062386;28;20049;-37
2021/03/14 10:11:05;;;;;;;4.60;4.07;;;18.50;56.60;;;;;;5062419;28;20780;-37
2021/03/14 10:13:32;;;;;;;5.35;4.35;;;18.50;56.50;;;;;;5062613;28;20032;-37
2021/03/14 10:15:59;;;;;;;4.30;3.75;;;18.50;56.50;;;;;;5044468;28;20036;-37
2021/03/14 10:18:26;;;;;;;4.97;4.13;;;18.50;56.60;;;;;;5028039;28;20048;-37
2021/03/14 10:21:13;;;;;;;4.82;4.32;;;18.50;56.60;;;;;;5044439;28;20029;-37
2021/03/14 10:23:39;;;;;;;5.82;4.57;;;18.50;56.60;;;;;;5078260;28;20036;-37
2021/03/14 10:26:08;;;;;;;4.50;4.10;;;18.40;56.60;;;;;;5077810;28;20052;-37
2021/03/14 10:28:39;;;;;;;5.40;4.53;;;18.40;56.50;;;;;;5062067;28;20029;-37
2021/03/14 10:31:06;;;;;;;4.53;3.95;;;18.40;56.60;;;;;;5062503;28;20112;-38
2021/03/14 10:33:34;;;;;;;5.22;3.95;;;18.40;56.70;;;;;;5062320;28;20037;-37
2021/03/14 10:36:05;;;;;;;4.43;3.92;;;18.40;56.60;;;;;;5043684;28;20064;-37
2021/03/14 10:38:42;;;;;;;5.55;4.53;;;18.30;56.60;;;;;;5061820;28;20589;-37
2021/03/14 10:41:16;;;;;;;4.90;4.40;;;18.30;56.60;;;;;;5062108;28;20037;-37
2021/03/14 10:43:55;;;;;;;5.03;4.32;;;18.30;56.60;;;;;;5062343;28;20112;-37
2021/03/14 10:46:49;;;;;;;4.95;4.18;;;18.30;56.70;;;;;;5044870;28;20060;-37
2021/03/14 10:49:24;;;;;;;4.97;4.40;;;18.30;56.60;;;;;;5047555;28;20048;-37
2021/03/14 10:51:52;;;;;;;4.68;4.18;;;18.30;56.60;;;;;;5063276;28;20025;-37
2021/03/14 10:54:19;;;;;;;4.15;3.58;;;18.30;56.70;;;;;;5082152;28;20037;-37
2021/03/14 10:56:46;;;;;;;4.37;3.97;;;18.20;56.70;;;;;;5038199;28;20096;-37
2021/03/14 10:59:28;;;;;;;5.15;4.00;;;18.20;56.70;;;;;;5061915;28;20278;-37
2021/03/14 11:02:00;;;;;;;4.85;4.32;;;18.20;56.70;;;;;;5044082;28;20433;-37
2021/03/14 11:04:28;;;;;;;4.80;3.95;;;18.20;56.90;;;;;;5061943;28;20730;-36
2021/03/14 11:06:55;;;;;;;4.32;3.72;;;18.20;56.70;;;;;;5062957;28;20033;-37
2021/03/14 11:09:21;;;;;;;4.95;3.78;;;18.20;56.80;;;;;;5061308;28;20021;-37
2021/03/14 11:11:48;;;;;;;4.53;3.95;;;18.20;56.80;;;;;;5061610;28;20067;-37
2021/03/14 11:14:47;;;;;;;;;;;18.20;56.80;;;;;;5062366;28;20027;-37
2021/03/14 11:17:17;;;;;;;4.28;3.88;;;18.10;56.80;;;;;;5063063;28;19966;-37
2021/03/14 11:19:45;;;;;;;4.72;4.05;;;18.10;56.90;;;;;;5081597;28;20033;-37
2021/03/14 11:22:18;;;;;;;4.35;3.90;;;18.10;56.90;;;;;;5077767;28;20033;-37
2021/03/14 11:24:47;;;;;;;4.88;4.03;;;18.10;57.00;;;;;;5061586;28;20025;-37
2021/03/14 11:27:14;;;;;;;4.22;3.83;;;18.10;57.00;;;;;;5075114;28;20033;-36
2021/03/14 11:29:40;;;;;;;4.23;3.30;;;18.00;57.10;;;;;;5081498;28;20032;-37
2021/03/14 11:32:13;;;;;;;4.38;3.97;;;18.00;57.00;;;;;;5071431;28;20502;-37
2021/03/14 11:34:43;;;;;;;4.18;3.78;;;18.00;57.10;;;;;;5060011;28;20033;-37
2021/03/14 11:37:10;;;;;;;4.72;3.72;;;18.00;57.10;;;;;;5036645;28;20113;-37
2021/03/14 11:39:37;;;;;;;5.55;3.58;;;18.00;57.00;;;;;;5044828;28;20025;-37
2021/03/14 11:42:04;;;;;;;4.53;4.10;;;17.90;57.00;;;;;;5045063;28;20116;-36
2021/03/14 11:44:30;;;;;;;4.15;3.75;;;18.00;57.00;;;;;;5045140;28;20056;-37
2021/03/14 11:46:56;;;;;;;4.82;4.00;;;17.90;56.90;;;;;;5075064;28;20047;-37
2021/03/14 11:49:23;;;;;;;4.35;3.60;;;18.00;57.10;;;;;;5084915;28;20040;-37
2021/03/14 11:51:49;;;;;;;4.40;3.97;;;17.90;57.10;;;;;;5083870;28;20028;-37
2021/03/14 11:54:19;;;;;;;4.40;4.00;;;17.90;57.10;;;;;;5063541;28;20058;-37
2021/03/14 11:56:49;;;;;;;5.15;3.90;;;17.90;57.00;;;;;;5075336;28;20586;-37
2021/03/14 11:59:15;;;;;;;5.05;3.80;;;17.90;57.10;;;;;;5064644;28;20045;-37
2021/03/14 12:01:41;;;;;;;3.92;3.58;;;17.90;57.10;;;;;;5064861;28;20048;-37
2021/03/14 12:04:08;;;;;;;4.53;4.13;;;17.90;57.10;;;;;;5065091;28;20033;-37
2021/03/14 12:06:35;;;;;;;5.32;4.03;;;17.80;57.20;;;;;;5064831;28;20045;-37
2021/03/14 12:09:03;;;;;;;3.95;3.55;;;17.80;57.30;;;;;;5064281;28;20096;-37
2021/03/14 12:11:29;;;;;;;5.63;4.00;;;17.80;57.10;;;;;;5047136;28;20060;-37
2021/03/14 12:13:56;;;;;;;4.65;4.10;;;17.80;57.20;;;;;;5064653;28;20036;-37
2021/03/14 12:16:22;;;;;;;4.07;3.67;;;17.80;57.20;;;;;;5064768;28;20059;-37
2021/03/14 12:18:48;;;;;;;3.80;3.42;;;17.70;57.20;;;;;;5064286;28;20033;-37
2021/03/14 12:21:14;;;;;;;4.65;3.40;;;17.70;57.20;;;;;;5064462;28;20029;-37
2021/03/14 12:23:40;;;;;;;4.10;3.63;;;17.70;57.10;;;;;;5062924;28;20033;-37
2021/03/14 12:26:06;;;;;;;4.13;3.70;;;17.70;57.10;;;;;;5062112;28;20025;-37
2021/03/14 12:28:33;;;;;;;4.07;3.50;;;17.80;57.20;;;;;;5064482;28;20449;-37
2021/03/14 12:30:59;;;;;;;4.80;3.83;;;17.70;57.30;;;;;;5064094;28;20028;-37
2021/03/14 12:33:26;;;;;;;4.07;3.57;;;17.70;57.30;;;;;;5030046;28;20029;-37
2021/03/14 12:35:52;;;;;;;4.10;3.70;;;17.70;57.20;;;;;;5064233;28;20036;-37
2021/03/14 12:38:19;;;;;;;4.80;3.88;;;17.70;57.10;;;;;;5046269;28;20051;-37
2021/03/14 12:40:46;;;;;;;3.90;3.45;;;17.60;57.30;;;;;;5063956;28;20029;-37
2021/03/14 12:43:13;;;;;;;3.80;3.40;;;17.70;57.30;;;;;;5064137;28;20043;-37
2021/03/14 12:45:40;;;;;;;3.67;3.38;;;17.70;57.30;;;;;;5064078;28;20028;-37
2021/03/14 12:48:06;;;;;;;4.90;3.33;;;17.60;57.10;;;;;;5063344;28;20037;-37
2021/03/14 12:50:32;;;;;;;4.10;3.70;;;17.60;57.40;;;;;;5064169;28;20485;-37
2021/03/14 12:52:59;;;;;;;5.03;3.60;;;17.60;57.30;;;;;;5065226;28;20131;-36
2021/03/14 12:55:25;;;;;;;4.25;3.85;;;17.60;57.40;;;;;;5050063;28;20029;-37